sensor_id;sensor_type;location;lat;lon;timestamp;pressure;altitude;pressure_sealevel;temperature;humidity
28701;BME280;15877;52.344;16.790;2023-02-10T00:02:21;102144.27;;;2.57;56.28
28701;BME280;15877;52.344;16.790;2023-02-10T00:04:54;102139.76;;;2.73;56.09
28701;BME280;15877;52.344;16.790;2023-02-10T00:07:27;102139.08;;;2.85;55.73
28701;BME280;15877;52.344;16.790;2023-02-10T00:10:05;102140.56;;;2.89;55.47
28701;BME280;15877;52.344;16.790;2023-02-10T00:12:38;102144.98;;;2.92;55.30
28701;BME280;15877;52.344;16.790;2023-02-10T00:15:11;102150.66;;;3.09;54.54
28701;BME280;15877;52.344;16.790;2023-02-10T00:17:44;102144.93;;;2.98;54.60
28701;BME280;15877;52.344;16.790;2023-02-10T00:20:17;102139.27;;;2.90;55.09
28701;BME280;15877;52.344;16.790;2023-02-10T00:22:49;102135.75;;;2.96;55.32
28701;BME280;15877;52.344;16.790;2023-02-10T00:25:22;102136.90;;;2.95;55.19
28701;BME280;15877;52.344;16.790;2023-02-10T00:27:55;102140.10;;;2.77;55.54
28701;BME280;15877;52.344;16.790;2023-02-10T00:30:29;102132.48;;;2.82;55.39
28701;BME280;15877;52.344;16.790;2023-02-10T00:33:02;102125.55;;;2.74;55.76
28701;BME280;15877;52.344;16.790;2023-02-10T00:35:36;102127.02;;;2.93;55.42
28701;BME280;15877;52.344;16.790;2023-02-10T00:38:10;102127.96;;;2.98;55.20
28701;BME280;15877;52.344;16.790;2023-02-10T00:40:43;102115.21;;;2.68;55.76
28701;BME280;15877;52.344;16.790;2023-02-10T00:43:15;102135.40;;;2.87;55.51
28701;BME280;15877;52.344;16.790;2023-02-10T00:45:48;102139.20;;;2.90;55.42
28701;BME280;15877;52.344;16.790;2023-02-10T00:48:21;102118.34;;;2.84;55.24
28701;BME280;15877;52.344;16.790;2023-02-10T00:50:53;102136.45;;;2.91;55.48
28701;BME280;15877;52.344;16.790;2023-02-10T00:53:26;102140.45;;;2.83;55.47
28701;BME280;15877;52.344;16.790;2023-02-10T00:55:59;102134.53;;;2.64;55.94
28701;BME280;15877;52.344;16.790;2023-02-10T00:58:32;102135.20;;;2.70;55.87
28701;BME280;15877;52.344;16.790;2023-02-10T01:01:06;102135.79;;;2.87;55.35
28701;BME280;15877;52.344;16.790;2023-02-10T01:03:39;102133.61;;;2.70;55.79
28701;BME280;15877;52.344;16.790;2023-02-10T01:06:15;102130.25;;;2.67;55.91
28701;BME280;15877;52.344;16.790;2023-02-10T01:08:48;102120.84;;;2.78;55.86
28701;BME280;15877;52.344;16.790;2023-02-10T01:11:21;102118.48;;;2.71;56.17
28701;BME280;15877;52.344;16.790;2023-02-10T01:13:58;102120.61;;;2.73;56.12
28701;BME280;15877;52.344;16.790;2023-02-10T01:16:30;102112.75;;;2.68;56.38
28701;BME280;15877;52.344;16.790;2023-02-10T01:19:04;102105.48;;;2.58;56.60
28701;BME280;15877;52.344;16.790;2023-02-10T01:21:37;102103.15;;;2.49;56.98
28701;BME280;15877;52.344;16.790;2023-02-10T01:24:10;102112.45;;;2.54;56.61
28701;BME280;15877;52.344;16.790;2023-02-10T01:26:43;102116.65;;;2.34;57.14
28701;BME280;15877;52.344;16.790;2023-02-10T01:29:16;102121.15;;;2.52;56.90
28701;BME280;15877;52.344;16.790;2023-02-10T01:31:49;102118.14;;;2.52;56.70
28701;BME280;15877;52.344;16.790;2023-02-10T01:34:25;102116.95;;;2.27;57.40
28701;BME280;15877;52.344;16.790;2023-02-10T01:36:57;102116.11;;;2.21;57.78
28701;BME280;15877;52.344;16.790;2023-02-10T01:39:30;102112.70;;;2.34;57.42
28701;BME280;15877;52.344;16.790;2023-02-10T01:42:04;102105.73;;;2.47;57.14
28701;BME280;15877;52.344;16.790;2023-02-10T01:47:46;102081.19;;;2.46;57.11
28701;BME280;15877;52.344;16.790;2023-02-10T01:50:21;102097.62;;;2.51;57.46
28701;BME280;15877;52.344;16.790;2023-02-10T01:52:56;102088.52;;;2.24;58.03
28701;BME280;15877;52.344;16.790;2023-02-10T01:55:32;102098.27;;;2.48;57.92
28701;BME280;15877;52.344;16.790;2023-02-10T01:58:08;102097.02;;;2.53;58.12
28701;BME280;15877;52.344;16.790;2023-02-10T02:00:42;102088.92;;;2.26;58.25
28701;BME280;15877;52.344;16.790;2023-02-10T02:03:15;102114.19;;;2.52;57.83
28701;BME280;15877;52.344;16.790;2023-02-10T02:05:48;102117.09;;;2.69;57.41
28701;BME280;15877;52.344;16.790;2023-02-10T02:08:24;102104.25;;;2.75;56.81
28701;BME280;15877;52.344;16.790;2023-02-10T02:11:06;102116.50;;;2.82;56.88
28701;BME280;15877;52.344;16.790;2023-02-10T02:14:03;102112.70;;;2.75;57.08
28701;BME280;15877;52.344;16.790;2023-02-10T02:16:55;102111.58;;;2.84;56.83
28701;BME280;15877;52.344;16.790;2023-02-10T02:23:13;102111.98;;;2.96;56.93
28701;BME280;15877;52.344;16.790;2023-02-10T02:26:03;102112.79;;;2.89;56.77
28701;BME280;15877;52.344;16.790;2023-02-10T02:28:51;102103.96;;;2.92;56.88
28701;BME280;15877;52.344;16.790;2023-02-10T02:31:52;102099.67;;;2.88;57.27
28701;BME280;15877;52.344;16.790;2023-02-10T02:34:51;102106.70;;;2.95;57.19
28701;BME280;15877;52.344;16.790;2023-02-10T02:37:28;102094.49;;;2.77;57.26
28701;BME280;15877;52.344;16.790;2023-02-10T02:40:02;102113.86;;;2.99;57.19
28701;BME280;15877;52.344;16.790;2023-02-10T02:42:37;102109.15;;;2.83;57.31
28701;BME280;15877;52.344;16.790;2023-02-10T02:45:12;102100.90;;;2.70;57.79
28701;BME280;15877;52.344;16.790;2023-02-10T02:48:22;102118.23;;;2.88;57.64
28701;BME280;15877;52.344;16.790;2023-02-10T02:51:08;102122.70;;;2.75;57.62
28701;BME280;15877;52.344;16.790;2023-02-10T02:53:51;102125.83;;;2.77;57.79
28701;BME280;15877;52.344;16.790;2023-02-10T02:56:36;102121.96;;;2.85;57.69
28701;BME280;15877;52.344;16.790;2023-02-10T02:59:20;102120.42;;;2.89;57.55
28701;BME280;15877;52.344;16.790;2023-02-10T03:01:57;102104.56;;;2.90;57.47
28701;BME280;15877;52.344;16.790;2023-02-10T03:04:32;102118.80;;;3.02;57.32
28701;BME280;15877;52.344;16.790;2023-02-10T03:07:04;102100.93;;;2.89;57.40
28701;BME280;15877;52.344;16.790;2023-02-10T03:09:37;102115.91;;;2.83;57.57
28701;BME280;15877;52.344;16.790;2023-02-10T03:12:11;102120.44;;;2.71;57.95
28701;BME280;15877;52.344;16.790;2023-02-10T03:14:44;102122.46;;;2.66;58.36
28701;BME280;15877;52.344;16.790;2023-02-10T03:17:16;102124.28;;;2.73;58.14
28701;BME280;15877;52.344;16.790;2023-02-10T03:19:49;102128.44;;;2.84;57.96
28701;BME280;15877;52.344;16.790;2023-02-10T03:22:21;102137.83;;;2.89;57.82
28701;BME280;15877;52.344;16.790;2023-02-10T03:24:54;102141.59;;;2.79;58.20
28701;BME280;15877;52.344;16.790;2023-02-10T03:27:27;102140.14;;;2.92;58.08
28701;BME280;15877;52.344;16.790;2023-02-10T03:30:01;102136.82;;;3.09;57.81
28701;BME280;15877;52.344;16.790;2023-02-10T03:32:34;102141.71;;;3.18;57.66
28701;BME280;15877;52.344;16.790;2023-02-10T03:35:07;102144.73;;;3.12;57.66
28701;BME280;15877;52.344;16.790;2023-02-10T03:37:39;102146.63;;;3.01;58.01
28701;BME280;15877;52.344;16.790;2023-02-10T03:40:13;102147.59;;;3.12;58.12
28701;BME280;15877;52.344;16.790;2023-02-10T03:42:45;102150.10;;;3.04;58.44
28701;BME280;15877;52.344;16.790;2023-02-10T03:45:18;102133.34;;;2.98;58.26
28701;BME280;15877;52.344;16.790;2023-02-10T03:47:51;102151.44;;;3.19;58.04
28701;BME280;15877;52.344;16.790;2023-02-10T03:50:23;102152.80;;;3.16;58.32
28701;BME280;15877;52.344;16.790;2023-02-10T03:52:56;102155.03;;;3.01;58.77
28701;BME280;15877;52.344;16.790;2023-02-10T03:55:29;102161.52;;;2.97;58.97
28701;BME280;15877;52.344;16.790;2023-02-10T03:58:02;102159.86;;;3.03;58.80
28701;BME280;15877;52.344;16.790;2023-02-10T04:00:34;102165.26;;;3.06;58.89
28701;BME280;15877;52.344;16.790;2023-02-10T04:03:07;102148.09;;;2.85;59.43
28701;BME280;15877;52.344;16.790;2023-02-10T04:05:39;102153.11;;;2.80;59.54
28701;BME280;15877;52.344;16.790;2023-02-10T04:08:15;102151.41;;;2.70;60.02
28701;BME280;15877;52.344;16.790;2023-02-10T04:10:48;102168.21;;;2.97;59.80
28701;BME280;15877;52.344;16.790;2023-02-10T04:13:20;102164.48;;;2.97;59.87
28701;BME280;15877;52.344;16.790;2023-02-10T04:16:03;102165.98;;;3.02;59.87
28701;BME280;15877;52.344;16.790;2023-02-10T04:18:36;102163.44;;;2.79;60.77
28701;BME280;15877;52.344;16.790;2023-02-10T04:21:11;102151.36;;;3.04;59.94
28701;BME280;15877;52.344;16.790;2023-02-10T04:23:47;102165.63;;;3.01;60.12
28701;BME280;15877;52.344;16.790;2023-02-10T04:26:20;102170.95;;;2.95;60.73
28701;BME280;15877;52.344;16.790;2023-02-10T04:28:53;102167.59;;;2.91;60.99
28701;BME280;15877;52.344;16.790;2023-02-10T04:31:25;102170.46;;;2.99;60.84
28701;BME280;15877;52.344;16.790;2023-02-10T04:33:58;102167.94;;;3.00;60.73
28701;BME280;15877;52.344;16.790;2023-02-10T04:36:32;102167.60;;;2.98;60.84
28701;BME280;15877;52.344;16.790;2023-02-10T04:39:05;102168.35;;;2.93;61.06
28701;BME280;15877;52.344;16.790;2023-02-10T04:41:37;102170.13;;;2.92;61.22
28701;BME280;15877;52.344;16.790;2023-02-10T04:44:10;102163.78;;;2.83;61.62
28701;BME280;15877;52.344;16.790;2023-02-10T04:46:43;102160.20;;;2.81;62.02
28701;BME280;15877;52.344;16.790;2023-02-10T04:49:15;102161.70;;;2.88;61.82
28701;BME280;15877;52.344;16.790;2023-02-10T04:51:48;102161.62;;;2.77;62.30
28701;BME280;15877;52.344;16.790;2023-02-10T04:54:21;102160.98;;;2.61;62.84
28701;BME280;15877;52.344;16.790;2023-02-10T04:56:57;102163.05;;;2.75;62.45
28701;BME280;15877;52.344;16.790;2023-02-10T04:59:29;102165.06;;;2.70;62.53
28701;BME280;15877;52.344;16.790;2023-02-10T05:02:02;102168.42;;;2.59;63.01
28701;BME280;15877;52.344;16.790;2023-02-10T05:04:35;102166.40;;;2.59;63.09
28701;BME280;15877;52.344;16.790;2023-02-10T05:07:07;102168.63;;;2.72;62.71
28701;BME280;15877;52.344;16.790;2023-02-10T05:09:40;102173.38;;;2.79;62.40
28701;BME280;15877;52.344;16.790;2023-02-10T05:12:13;102172.84;;;2.66;62.85
28701;BME280;15877;52.344;16.790;2023-02-10T05:14:45;102172.52;;;2.69;62.85
28701;BME280;15877;52.344;16.790;2023-02-10T05:17:18;102174.41;;;2.61;63.19
28701;BME280;15877;52.344;16.790;2023-02-10T05:19:50;102173.48;;;2.76;62.83
28701;BME280;15877;52.344;16.790;2023-02-10T05:22:23;102176.35;;;2.65;63.32
28701;BME280;15877;52.344;16.790;2023-02-10T05:25:00;102178.64;;;2.77;63.16
28701;BME280;15877;52.344;16.790;2023-02-10T05:27:33;102173.05;;;3.06;62.14
28701;BME280;15877;52.344;16.790;2023-02-10T05:30:07;102159.70;;;2.97;62.22
28701;BME280;15877;52.344;16.790;2023-02-10T05:32:43;102173.58;;;2.97;62.79
28701;BME280;15877;52.344;16.790;2023-02-10T05:35:16;102165.30;;;2.96;62.72
28701;BME280;15877;52.344;16.790;2023-02-10T05:37:48;102187.89;;;3.07;62.76
28701;BME280;15877;52.344;16.790;2023-02-10T05:40:23;102182.67;;;3.04;62.80
28701;BME280;15877;52.344;16.790;2023-02-10T05:43:01;102188.91;;;3.28;62.08
28701;BME280;15877;52.344;16.790;2023-02-10T05:45:33;102188.83;;;3.14;62.52
28701;BME280;15877;52.344;16.790;2023-02-10T05:48:06;102172.13;;;3.04;62.44
28701;BME280;15877;52.344;16.790;2023-02-10T05:50:39;102192.86;;;3.21;62.09
28701;BME280;15877;52.344;16.790;2023-02-10T05:53:17;102195.16;;;3.28;61.63
28701;BME280;15877;52.344;16.790;2023-02-10T05:56:00;102193.52;;;3.26;61.70
28701;BME280;15877;52.344;16.790;2023-02-10T05:58:37;102194.66;;;3.15;61.91
28701;BME280;15877;52.344;16.790;2023-02-10T06:01:12;102196.81;;;2.96;62.53
28701;BME280;15877;52.344;16.790;2023-02-10T06:03:45;102197.50;;;2.88;63.09
28701;BME280;15877;52.344;16.790;2023-02-10T06:06:18;102204.69;;;3.01;62.87
28701;BME280;15877;52.344;16.790;2023-02-10T06:08:50;102209.72;;;3.17;62.38
28701;BME280;15877;52.344;16.790;2023-02-10T06:11:23;102209.05;;;3.23;62.37
28701;BME280;15877;52.344;16.790;2023-02-10T06:13:56;102214.50;;;3.24;62.47
28701;BME280;15877;52.344;16.790;2023-02-10T06:16:30;102199.11;;;3.13;62.60
28701;BME280;15877;52.344;16.790;2023-02-10T06:19:03;102215.63;;;3.13;63.14
28701;BME280;15877;52.344;16.790;2023-02-10T06:21:35;102216.67;;;3.15;63.00
28701;BME280;15877;52.344;16.790;2023-02-10T06:24:08;102202.26;;;3.25;62.86
28701;BME280;15877;52.344;16.790;2023-02-10T06:26:44;102178.98;;;3.04;63.13
28701;BME280;15877;52.344;16.790;2023-02-10T06:29:16;102194.77;;;3.18;63.22
28701;BME280;15877;52.344;16.790;2023-02-10T06:31:49;102205.64;;;3.13;63.24
28701;BME280;15877;52.344;16.790;2023-02-10T06:34:30;102207.27;;;3.06;63.81
28701;BME280;15877;52.344;16.790;2023-02-10T06:37:03;102213.15;;;3.08;63.81
28701;BME280;15877;52.344;16.790;2023-02-10T06:39:36;102207.41;;;3.17;63.70
28701;BME280;15877;52.344;16.790;2023-02-10T06:42:12;102204.41;;;3.06;64.13
28701;BME280;15877;52.344;16.790;2023-02-10T06:44:45;102204.70;;;2.87;64.83
28701;BME280;15877;52.344;16.790;2023-02-10T06:47:17;102208.24;;;2.83;65.22
28701;BME280;15877;52.344;16.790;2023-02-10T06:49:50;102215.27;;;2.94;65.14
28701;BME280;15877;52.344;16.790;2023-02-10T06:52:23;102222.01;;;3.14;64.46
28701;BME280;15877;52.344;16.790;2023-02-10T06:54:59;102217.71;;;2.90;65.48
28701;BME280;15877;52.344;16.790;2023-02-10T06:57:32;102220.90;;;3.07;65.24
28701;BME280;15877;52.344;16.790;2023-02-10T07:00:08;102224.86;;;3.11;65.28
28701;BME280;15877;52.344;16.790;2023-02-10T07:02:44;102227.65;;;2.90;66.04
28701;BME280;15877;52.344;16.790;2023-02-10T07:05:20;102227.51;;;2.82;66.20
28701;BME280;15877;52.344;16.790;2023-02-10T07:07:53;102233.78;;;3.02;66.02
28701;BME280;15877;52.344;16.790;2023-02-10T07:10:26;102231.02;;;3.12;65.74
28701;BME280;15877;52.344;16.790;2023-02-10T07:12:59;102234.45;;;3.04;66.09
28701;BME280;15877;52.344;16.790;2023-02-10T07:15:31;102234.96;;;3.14;65.87
28701;BME280;15877;52.344;16.790;2023-02-10T07:18:04;102235.11;;;3.07;66.21
28701;BME280;15877;52.344;16.790;2023-02-10T07:20:37;102241.98;;;3.10;66.14
28701;BME280;15877;52.344;16.790;2023-02-10T07:23:09;102248.50;;;3.26;65.67
28701;BME280;15877;52.344;16.790;2023-02-10T07:25:42;102249.80;;;3.38;65.13
28701;BME280;15877;52.344;16.790;2023-02-10T07:28:15;102253.86;;;3.33;65.35
28701;BME280;15877;52.344;16.790;2023-02-10T07:30:48;102258.45;;;3.23;65.62
28701;BME280;15877;52.344;16.790;2023-02-10T07:33:21;102263.98;;;3.18;65.98
28701;BME280;15877;52.344;16.790;2023-02-10T07:35:53;102264.64;;;3.20;66.11
28701;BME280;15877;52.344;16.790;2023-02-10T07:38:26;102269.52;;;3.31;65.75
28701;BME280;15877;52.344;16.790;2023-02-10T07:40:59;102253.80;;;2.96;66.62
28701;BME280;15877;52.344;16.790;2023-02-10T07:43:31;102266.38;;;3.32;66.24
28701;BME280;15877;52.344;16.790;2023-02-10T07:46:07;102270.90;;;3.35;65.93
28701;BME280;15877;52.344;16.790;2023-02-10T07:48:40;102273.32;;;3.38;66.01
28701;BME280;15877;52.344;16.790;2023-02-10T07:51:12;102276.15;;;3.26;66.24
28701;BME280;15877;52.344;16.790;2023-02-10T07:53:45;102280.70;;;3.42;65.91
28701;BME280;15877;52.344;16.790;2023-02-10T07:56:18;102286.84;;;3.39;65.90
28701;BME280;15877;52.344;16.790;2023-02-10T07:58:50;102294.05;;;3.47;65.71
28701;BME280;15877;52.344;16.790;2023-02-10T08:01:23;102289.88;;;3.44;65.86
28701;BME280;15877;52.344;16.790;2023-02-10T08:03:55;102286.65;;;3.55;65.64
28701;BME280;15877;52.344;16.790;2023-02-10T08:06:29;102291.65;;;3.55;65.80
28701;BME280;15877;52.344;16.790;2023-02-10T08:09:01;102291.15;;;3.56;65.83
28701;BME280;15877;52.344;16.790;2023-02-10T08:11:34;102292.76;;;3.57;65.85
28701;BME280;15877;52.344;16.790;2023-02-10T08:14:07;102284.40;;;3.56;65.86
28701;BME280;15877;52.344;16.790;2023-02-10T08:16:39;102279.78;;;3.64;65.75
28701;BME280;15877;52.344;16.790;2023-02-10T08:19:12;102264.07;;;3.61;65.62
28701;BME280;15877;52.344;16.790;2023-02-10T08:21:44;102289.73;;;3.59;65.81
28701;BME280;15877;52.344;16.790;2023-02-10T08:24:17;102290.91;;;3.40;66.54
28701;BME280;15877;52.344;16.790;2023-02-10T08:26:50;102295.58;;;3.38;66.59
28701;BME280;15877;52.344;16.790;2023-02-10T08:29:22;102294.80;;;3.39;66.78
28701;BME280;15877;52.344;16.790;2023-02-10T08:31:55;102286.33;;;3.64;66.24
28701;BME280;15877;52.344;16.790;2023-02-10T08:34:27;102294.08;;;3.65;65.95
28701;BME280;15877;52.344;16.790;2023-02-10T08:37:00;102302.85;;;3.87;65.40
28701;BME280;15877;52.344;16.790;2023-02-10T08:39:33;102314.45;;;4.01;64.95
28701;BME280;15877;52.344;16.790;2023-02-10T08:42:05;102325.19;;;4.14;64.45
28701;BME280;15877;52.344;16.790;2023-02-10T08:44:38;102330.14;;;4.11;64.48
28701;BME280;15877;52.344;16.790;2023-02-10T08:47:11;102333.27;;;4.09;64.61
28701;BME280;15877;52.344;16.790;2023-02-10T08:49:46;102341.75;;;4.16;64.56
28701;BME280;15877;52.344;16.790;2023-02-10T08:52:19;102342.35;;;4.19;64.59
28701;BME280;15877;52.344;16.790;2023-02-10T08:54:52;102338.83;;;4.14;64.58
28701;BME280;15877;52.344;16.790;2023-02-10T08:57:24;102323.59;;;4.00;64.70
28701;BME280;15877;52.344;16.790;2023-02-10T08:59:57;102329.09;;;4.12;64.68
28701;BME280;15877;52.344;16.790;2023-02-10T09:02:30;102324.86;;;4.02;65.40
28701;BME280;15877;52.344;16.790;2023-02-10T09:05:03;102323.31;;;4.02;65.45
28701;BME280;15877;52.344;16.790;2023-02-10T09:07:40;102324.58;;;3.84;65.99
28701;BME280;15877;52.344;16.790;2023-02-10T09:10:15;102326.45;;;3.95;66.07
28701;BME280;15877;52.344;16.790;2023-02-10T09:12:48;102327.38;;;3.97;66.15
28701;BME280;15877;52.344;16.790;2023-02-10T09:15:21;102325.73;;;3.85;66.69
28701;BME280;15877;52.344;16.790;2023-02-10T09:17:53;102322.33;;;3.83;66.93
28701;BME280;15877;52.344;16.790;2023-02-10T09:20:26;102323.36;;;3.89;66.87
28701;BME280;15877;52.344;16.790;2023-02-10T09:22:58;102328.92;;;4.22;66.13
28701;BME280;15877;52.344;16.790;2023-02-10T09:25:31;102337.30;;;4.21;66.04
28701;BME280;15877;52.344;16.790;2023-02-10T09:28:04;102346.73;;;4.41;65.48
28701;BME280;15877;52.344;16.790;2023-02-10T09:30:37;102358.23;;;4.63;64.92
28701;BME280;15877;52.344;16.790;2023-02-10T09:33:09;102361.64;;;4.63;64.97
28701;BME280;15877;52.344;16.790;2023-02-10T09:35:42;102370.35;;;4.38;65.67
28701;BME280;15877;52.344;16.790;2023-02-10T09:38:15;102373.80;;;4.55;65.43
28701;BME280;15877;52.344;16.790;2023-02-10T09:40:52;102370.54;;;4.48;65.59
28701;BME280;15877;52.344;16.790;2023-02-10T09:43:46;102372.10;;;4.65;65.37
28701;BME280;15877;52.344;16.790;2023-02-10T09:46:30;102373.37;;;4.55;65.69
28701;BME280;15877;52.344;16.790;2023-02-10T09:52:12;102373.68;;;4.75;65.39
28701;BME280;15877;52.344;16.790;2023-02-10T09:54:47;102369.66;;;4.79;65.38
28701;BME280;15877;52.344;16.790;2023-02-10T09:57:26;102365.42;;;4.94;64.88
28701;BME280;15877;52.344;16.790;2023-02-10T10:00:05;102360.29;;;4.78;65.04
28701;BME280;15877;52.344;16.790;2023-02-10T10:02:49;102356.73;;;4.67;65.52
28701;BME280;15877;52.344;16.790;2023-02-10T10:05:28;102355.21;;;4.48;66.44
28701;BME280;15877;52.344;16.790;2023-02-10T10:08:11;102351.24;;;4.81;65.45
28701;BME280;15877;52.344;16.790;2023-02-10T10:10:47;102342.73;;;4.73;65.61
28701;BME280;15877;52.344;16.790;2023-02-10T10:13:23;102346.27;;;4.67;66.14
28701;BME280;15877;52.344;16.790;2023-02-10T10:16:07;102349.02;;;4.65;66.16
28701;BME280;15877;52.344;16.790;2023-02-10T10:18:52;102353.38;;;4.61;66.56
28701;BME280;15877;52.344;16.790;2023-02-10T10:21:34;102360.52;;;4.75;66.16
28701;BME280;15877;52.344;16.790;2023-02-10T10:24:22;102360.77;;;4.88;65.76
28701;BME280;15877;52.344;16.790;2023-02-10T10:27:10;102363.23;;;4.90;65.57
28701;BME280;15877;52.344;16.790;2023-02-10T10:29:51;102369.36;;;4.84;65.78
28701;BME280;15877;52.344;16.790;2023-02-10T10:32:37;102363.15;;;4.80;65.95
28701;BME280;15877;52.344;16.790;2023-02-10T10:35:17;102352.25;;;4.75;66.10
28701;BME280;15877;52.344;16.790;2023-02-10T10:37:50;102357.98;;;4.93;65.85
28701;BME280;15877;52.344;16.790;2023-02-10T10:40:27;102353.48;;;4.93;65.96
28701;BME280;15877;52.344;16.790;2023-02-10T10:43:02;102357.96;;;4.85;66.38
28701;BME280;15877;52.344;16.790;2023-02-10T10:45:39;102354.39;;;4.82;66.55
28701;BME280;15877;52.344;16.790;2023-02-10T10:48:17;102356.48;;;5.02;66.08
28701;BME280;15877;52.344;16.790;2023-02-10T10:50:58;102333.15;;;4.94;65.80
28701;BME280;15877;52.344;16.790;2023-02-10T10:53:37;102334.75;;;5.08;65.56
28701;BME280;15877;52.344;16.790;2023-02-10T10:56:26;102345.17;;;5.03;66.08
28701;BME280;15877;52.344;16.790;2023-02-10T10:59:02;102351.16;;;5.10;65.77
28701;BME280;15877;52.344;16.790;2023-02-10T11:01:37;102347.39;;;5.05;65.93
28701;BME280;15877;52.344;16.790;2023-02-10T11:04:15;102345.48;;;5.10;65.89
28701;BME280;15877;52.344;16.790;2023-02-10T11:06:50;102352.05;;;5.12;65.85
28701;BME280;15877;52.344;16.790;2023-02-10T11:09:28;102346.65;;;5.10;65.98
28701;BME280;15877;52.344;16.790;2023-02-10T11:12:13;102330.77;;;4.98;65.99
28701;BME280;15877;52.344;16.790;2023-02-10T11:14:49;102347.80;;;5.09;66.09
28701;BME280;15877;52.344;16.790;2023-02-10T11:17:29;102338.99;;;5.07;66.34
28701;BME280;15877;52.344;16.790;2023-02-10T11:20:05;102329.45;;;5.12;66.25
28701;BME280;15877;52.344;16.790;2023-02-10T11:22:56;102328.66;;;4.83;67.30
28701;BME280;15877;52.344;16.790;2023-02-10T11:25:32;102334.59;;;4.89;67.53
28701;BME280;15877;52.344;16.790;2023-02-10T11:28:07;102325.84;;;4.74;67.80
28701;BME280;15877;52.344;16.790;2023-02-10T11:30:56;102341.23;;;4.81;67.99
28701;BME280;15877;52.344;16.790;2023-02-10T11:33:31;102343.91;;;5.17;66.91
28701;BME280;15877;52.344;16.790;2023-02-10T11:36:07;102344.33;;;4.93;67.38
28701;BME280;15877;52.344;16.790;2023-02-10T11:38:43;102341.89;;;4.96;67.77
28701;BME280;15877;52.344;16.790;2023-02-10T11:41:15;102332.80;;;5.00;67.83
28701;BME280;15877;52.344;16.790;2023-02-10T11:43:48;102325.33;;;5.10;67.59
28701;BME280;15877;52.344;16.790;2023-02-10T11:46:23;102322.13;;;5.10;67.78
28701;BME280;15877;52.344;16.790;2023-02-10T11:48:59;102313.71;;;5.05;68.17
28701;BME280;15877;52.344;16.790;2023-02-10T11:51:32;102303.58;;;5.27;67.76
28701;BME280;15877;52.344;16.790;2023-02-10T11:54:05;102302.31;;;5.27;67.92
28701;BME280;15877;52.344;16.790;2023-02-10T11:56:47;102298.41;;;5.45;67.59
28701;BME280;15877;52.344;16.790;2023-02-10T11:59:44;102298.48;;;5.52;67.17
28701;BME280;15877;52.344;16.790;2023-02-10T12:02:22;102303.14;;;5.48;67.38
28701;BME280;15877;52.344;16.790;2023-02-10T12:05:14;102300.11;;;5.26;67.95
28701;BME280;15877;52.344;16.790;2023-02-10T12:08:01;102296.77;;;5.44;67.70
28701;BME280;15877;52.344;16.790;2023-02-10T12:10:41;102301.96;;;5.31;67.94
28701;BME280;15877;52.344;16.790;2023-02-10T12:13:28;102301.09;;;5.29;68.26
28701;BME280;15877;52.344;16.790;2023-02-10T12:16:12;102302.67;;;5.32;68.25
28701;BME280;15877;52.344;16.790;2023-02-10T12:18:58;102297.90;;;5.50;68.13
28701;BME280;15877;52.344;16.790;2023-02-10T12:21:51;102290.47;;;5.36;68.09
28701;BME280;15877;52.344;16.790;2023-02-10T12:24:41;102303.71;;;5.45;68.00
28701;BME280;15877;52.344;16.790;2023-02-10T12:27:21;102287.69;;;5.33;67.90
28701;BME280;15877;52.344;16.790;2023-02-10T12:30:00;102291.27;;;5.31;68.11
28701;BME280;15877;52.344;16.790;2023-02-10T12:32:44;102309.07;;;5.60;67.77
28701;BME280;15877;52.344;16.790;2023-02-10T12:35:32;102315.60;;;5.86;67.17
28701;BME280;15877;52.344;16.790;2023-02-10T12:38:20;102297.66;;;6.01;66.76
28701;BME280;15877;52.344;16.790;2023-02-10T12:41:03;102309.39;;;6.29;66.66
28701;BME280;15877;52.344;16.790;2023-02-10T12:43:50;102307.86;;;6.28;66.17
28701;BME280;15877;52.344;16.790;2023-02-10T12:46:29;102310.70;;;6.39;65.69
28701;BME280;15877;52.344;16.790;2023-02-10T12:49:14;102309.55;;;6.31;65.64
28701;BME280;15877;52.344;16.790;2023-02-10T12:52:00;102308.40;;;6.29;65.61
28701;BME280;15877;52.344;16.790;2023-02-10T12:54:39;102308.04;;;6.07;66.11
28701;BME280;15877;52.344;16.790;2023-02-10T12:57:18;102307.13;;;6.05;66.60
28701;BME280;15877;52.344;16.790;2023-02-10T12:59:58;102305.80;;;6.04;66.47
28701;BME280;15877;52.344;16.790;2023-02-10T13:02:39;102304.34;;;6.06;66.49
28701;BME280;15877;52.344;16.790;2023-02-10T13:05:18;102307.91;;;5.96;66.72
28701;BME280;15877;52.344;16.790;2023-02-10T13:07:55;102299.29;;;5.81;66.88
28701;BME280;15877;52.344;16.790;2023-02-10T13:10:35;102314.84;;;5.83;67.21
28701;BME280;15877;52.344;16.790;2023-02-10T13:13:12;102310.92;;;5.93;67.10
28701;BME280;15877;52.344;16.790;2023-02-10T13:15:50;102312.81;;;5.82;67.25
28701;BME280;15877;52.344;16.790;2023-02-10T13:18:27;102309.56;;;5.69;67.84
28701;BME280;15877;52.344;16.790;2023-02-10T13:21:04;102309.68;;;5.69;67.93
28701;BME280;15877;52.344;16.790;2023-02-10T13:23:42;102308.20;;;5.77;67.82
28701;BME280;15877;52.344;16.790;2023-02-10T13:26:41;102308.48;;;5.57;68.46
28701;BME280;15877;52.344;16.790;2023-02-10T13:29:23;102309.23;;;5.69;68.38
28701;BME280;15877;52.344;16.790;2023-02-10T13:32:15;102287.54;;;5.73;68.13
28701;BME280;15877;52.344;16.790;2023-02-10T13:34:53;102306.13;;;5.92;68.00
28701;BME280;15877;52.344;16.790;2023-02-10T13:37:34;102303.78;;;5.88;68.11
28701;BME280;15877;52.344;16.790;2023-02-10T13:40:16;102288.14;;;5.84;67.76
28701;BME280;15877;52.344;16.790;2023-02-10T13:42:54;102303.15;;;5.81;68.36
28701;BME280;15877;52.344;16.790;2023-02-10T13:45:30;102302.54;;;5.91;68.16
28701;BME280;15877;52.344;16.790;2023-02-10T13:48:05;102301.05;;;5.98;68.01